Time;durP1;ratioP1;P1;durP2;ratioP2;P2;SDS_P1;SDS_P2;PMS_P1;PMS_P2;Temp;Humidity;BMP_temperature;BMP_pressure;BME280_temperature;BME280_humidity;BME280_pressure;Samples;Min_cycle;Max_cycle;Signal;HPM_P1;HPM_P2
2023/07/04 00:00:21;;;;;;;9.20;8.10;;;;;;;17.37;100.00;97246.66;110222;1242;69292;-64
2023/07/04 00:03:11;;;;;;;10.30;8.00;;;;;;;17.35;100.00;97245.81;110160;1242;68433;-64
2023/07/04 00:05:48;;;;;;;10.00;8.50;;;;;;;17.32;100.00;97246.45;110160;1242;58862;-64
2023/07/04 00:08:21;;;;;;;10.70;8.20;;;;;;;17.30;100.00;97244.04;110239;1242;58860;-65
2023/07/04 00:10:57;;;;;;;12.80;9.70;;;;;;;17.29;100.00;97255.26;110307;1242;69994;-67
2023/07/04 00:13:31;;;;;;;11.50;10.00;;;;;;;17.26;100.00;97258.19;110256;1241;68524;-66
2023/07/04 00:16:06;;;;;;;12.50;10.50;;;;;;;17.24;100.00;97259.23;110246;1240;69415;-65
2023/07/04 00:18:36;;;;;;;13.40;10.40;;;;;;;17.22;100.00;97260.00;110272;1242;58798;-65
2023/07/04 00:21:14;;;;;;;11.90;10.20;;;;;;;17.19;100.00;97264.31;110249;1245;58828;-66
2023/07/04 00:23:47;;;;;;;11.50;9.60;;;;;;;17.16;100.00;97263.91;110138;1245;71066;-65
2023/07/04 00:26:21;;;;;;;12.30;9.80;;;;;;;17.14;100.00;97265.02;110174;1244;68302;-66
2023/07/04 00:28:53;;;;;;;11.90;9.40;;;;;;;17.11;100.00;97262.03;110142;1241;68626;-66
2023/07/04 00:31:25;;;;;;;13.00;10.00;;;;;;;17.06;100.00;97258.30;110262;1242;58930;-66
2023/07/04 00:33:56;;;;;;;11.90;10.20;;;;;;;17.00;100.00;97257.47;110213;1243;58875;-65
2023/07/04 00:36:29;;;;;;;12.40;10.30;;;;;;;16.96;100.00;97254.58;110246;1242;70535;-65
2023/07/04 00:39:02;;;;;;;14.30;11.80;;;;;;;16.93;100.00;97254.55;110321;1241;68541;-65
2023/07/04 00:41:35;;;;;;;15.00;13.50;;;;;;;16.91;100.00;97253.81;110145;1246;69402;-65
2023/07/04 00:44:23;;;;;;;17.60;15.70;;;;;;;16.89;100.00;97251.09;110172;1245;58892;-65
2023/07/04 00:47:22;;;;;;;17.30;15.00;;;;;;;16.86;100.00;97250.50;109978;1246;58947;-64
2023/07/04 00:49:57;;;;;;;16.60;14.30;;;;;;;16.82;100.00;97257.50;110201;1241;70594;-65
2023/07/04 00:52:36;;;;;;;18.10;14.40;;;;;;;16.79;100.00;97256.77;110136;1241;68497;-65
2023/07/04 00:55:10;;;;;;;15.50;13.30;;;;;;;16.77;100.00;97256.09;110101;1240;69154;-64
2023/07/04 00:57:42;;;;;;;13.30;11.90;;;;;;;16.74;100.00;97259.44;110194;1244;58902;-64
2023/07/04 01:00:25;;;;;;;17.00;13.30;;;;;;;16.70;100.00;97263.27;110193;1245;59240;-64
2023/07/04 01:03:14;;;;;;;14.90;12.00;;;;;;;16.66;100.00;97259.67;110177;1244;70421;-65
2023/07/04 01:06:20;;;;;;;13.70;12.30;;;;;;;16.63;100.00;97256.61;110162;1245;69255;-65
2023/07/04 01:09:01;;;;;;;14.00;11.60;;;;;;;16.59;100.00;97251.38;110022;1241;69275;-64
2023/07/04 01:11:45;;;;;;;15.10;11.30;;;;;;;16.56;100.00;97253.63;110151;1241;58909;-64
2023/07/04 01:14:26;;;;;;;14.40;11.50;;;;;;;16.53;100.00;97252.30;110118;1241;59342;-66
2023/07/04 01:17:00;;;;;;;16.90;12.30;;;;;;;16.50;100.00;97256.64;110312;1242;70847;-64
2023/07/04 01:19:38;;;;;;;15.20;11.60;;;;;;;16.47;100.00;97252.42;110181;1242;68505;-66
2023/07/04 01:22:25;;;;;;;13.50;11.20;;;;;;;16.45;100.00;97253.30;110227;1249;69289;-66
2023/07/04 01:25:13;;;;;;;11.90;9.90;;;;;;;16.44;100.00;97253.09;110091;1241;58870;-65
2023/07/04 01:27:48;;;;;;;11.40;9.70;;;;;;;16.42;100.00;97250.05;110234;1242;58798;-65
2023/07/04 01:30:24;;;;;;;11.00;9.20;;;;;;;16.41;100.00;97250.39;110182;1242;70533;-65
2023/07/04 01:32:59;;;;;;;12.00;9.80;;;;;;;16.39;100.00;97251.23;110161;1242;68591;-65
2023/07/04 01:35:33;;;;;;;13.30;9.50;;;;;;;16.38;100.00;97253.63;110152;1243;68261;-65
2023/07/04 01:38:07;;;;;;;10.70;9.10;;;;;;;16.35;100.00;97255.58;110161;1245;58893;-65
2023/07/04 01:40:42;;;;;;;13.30;9.20;;;;;;;16.33;100.00;97258.21;110221;1241;58848;-65
2023/07/04 01:43:17;;;;;;;11.60;9.50;;;;;;;16.30;100.00;97261.12;110197;1242;69853;-65
2023/07/04 01:45:51;;;;;;;12.00;9.40;;;;;;;16.26;100.00;97263.58;110137;1240;68387;-65
2023/07/04 01:48:26;;;;;;;13.40;10.80;;;;;;;16.22;100.00;97263.15;110143;1243;69283;-64
2023/07/04 01:51:01;;;;;;;12.60;10.90;;;;;;;16.18;100.00;97266.32;110183;1242;58934;-64
2023/07/04 01:53:32;;;;;;;14.70;10.80;;;;;;;16.14;100.00;97265.88;110236;1242;58943;-64
2023/07/04 01:56:06;;;;;;;15.70;12.00;;;;;;;16.11;100.00;97265.99;110279;1242;70542;-64
2023/07/04 01:58:36;;;;;;;13.10;11.20;;;;;;;16.08;100.00;97265.61;109392;1245;784312;-64
2023/07/04 02:01:11;;;;;;;14.40;11.40;;;;;;;16.02;100.00;97268.88;110143;1244;68542;-64
2023/07/04 02:03:43;;;;;;;14.20;11.00;;;;;;;16.00;100.00;97265.61;109890;1241;58960;-64
2023/07/04 02:06:18;;;;;;;14.40;10.90;;;;;;;15.99;100.00;97267.69;110145;1249;58886;-65
2023/07/04 02:08:53;;;;;;;13.40;11.40;;;;;;;15.98;100.00;97266.89;110226;1245;70092;-64
2023/07/04 02:11:26;;;;;;;14.00;10.80;;;;;;;15.97;100.00;97266.64;110210;1242;69208;-64
2023/07/04 02:14:00;;;;;;;14.60;11.20;;;;;;;15.96;100.00;97263.58;110203;1242;68680;-64
2023/07/04 02:16:34;;;;;;;15.20;12.30;;;;;;;15.94;100.00;97267.94;110183;1246;58950;-66
2023/07/04 02:19:07;;;;;;;13.30;10.30;;;;;;;15.92;100.00;97273.31;110259;1247;58912;-65
2023/07/04 02:21:39;;;;;;;13.30;10.90;;;;;;;15.89;100.00;97270.91;110192;1242;69841;-66
2023/07/04 02:24:14;;;;;;;14.80;10.80;;;;;;;15.87;100.00;97266.97;110166;1241;69257;-66
2023/07/04 02:26:50;;;;;;;12.10;10.00;;;;;;;15.84;100.00;97263.73;110191;1243;68404;-64
2023/07/04 02:29:25;;;;;;;13.20;10.80;;;;;;;15.81;100.00;97262.73;110100;1245;58947;-66
2023/07/04 02:31:56;;;;;;;11.90;10.20;;;;;;;15.79;100.00;97264.27;110196;1242;58817;-64
2023/07/04 02:34:28;;;;;;;12.40;10.40;;;;;;;15.77;100.00;97263.83;110126;1246;71034;-64
2023/07/04 02:37:01;;;;;;;13.50;10.20;;;;;;;15.75;100.00;97265.58;110157;1246;69058;-64
2023/07/04 02:39:32;;;;;;;11.50;10.00;;;;;;;15.73;100.00;97267.02;110177;1247;69276;-64
2023/07/04 02:42:05;;;;;;;13.70;11.20;;;;;;;15.71;100.00;97272.83;110208;1241;58872;-64
2023/07/04 02:44:38;;;;;;;13.70;11.50;;;;;;;15.68;100.00;97269.77;110246;1242;58857;-64
2023/07/04 02:47:08;;;;;;;12.40;9.80;;;;;;;15.68;100.00;97269.90;110292;1242;68885;-64
2023/07/04 02:49:41;;;;;;;14.90;11.20;;;;;;;15.69;100.00;97268.75;110162;1246;69661;-64
2023/07/04 02:52:13;;;;;;;14.70;10.90;;;;;;;15.70;100.00;97271.46;110159;1245;68722;-64
2023/07/04 02:54:46;;;;;;;14.20;11.50;;;;;;;15.69;100.00;97270.89;110263;1243;58872;-65
2023/07/04 02:57:18;;;;;;;13.00;9.50;;;;;;;15.66;100.00;97267.66;110208;1245;58887;-64
2023/07/04 02:59:49;;;;;;;12.30;10.10;;;;;;;15.66;100.00;97270.88;110082;1241;71102;-64
2023/07/04 03:02:20;;;;;;;14.40;11.90;;;;;;;15.66;100.00;97275.23;110108;1244;69238;-64
2023/07/04 03:04:51;;;;;;;14.30;11.40;;;;;;;15.69;100.00;97281.76;110138;1245;68760;-64
2023/07/04 03:07:24;;;;;;;13.20;10.40;;;;;;;15.73;100.00;97279.99;110113;1244;58866;-64
2023/07/04 03:09:55;;;;;;;11.90;10.00;;;;;;;15.76;100.00;97279.01;110166;1247;58859;-64
2023/07/04 03:12:28;;;;;;;14.70;11.20;;;;;;;15.80;100.00;97274.92;109993;1246;71038;-65
2023/07/04 03:15:01;;;;;;;15.30;12.50;;;;;;;15.86;100.00;97275.77;110101;1252;69089;-64
2023/07/04 03:17:34;;;;;;;14.00;11.70;;;;;;;15.94;100.00;97278.17;110121;1246;69687;-66
2023/07/04 03:20:10;;;;;;;13.90;11.50;;;;;;;15.99;100.00;97274.73;110146;1241;58942;-66
2023/07/04 03:22:42;;;;;;;13.80;11.00;;;;;;;16.05;100.00;97274.83;110213;1243;58878;-64
2023/07/04 03:25:15;;;;;;;13.30;10.40;;;;;;;16.10;100.00;97270.08;110150;1245;70923;-64
2023/07/04 03:27:49;;;;;;;12.90;10.20;;;;;;;16.14;100.00;97272.66;110147;1250;69147;-64
2023/07/04 03:30:24;;;;;;;12.30;9.70;;;;;;;16.17;100.00;97272.42;110171;1245;69805;-64
2023/07/04 03:32:59;;;;;;;11.50;9.20;;;;;;;16.19;100.00;97275.95;110169;1241;58982;-66
2023/07/04 03:35:29;;;;;;;12.00;9.20;;;;;;;16.20;100.00;97279.15;110149;1241;58927;-66
2023/07/04 03:38:10;;;;;;;12.60;9.40;;;;;;;16.20;100.00;97280.70;110091;1241;71164;-66
2023/07/04 03:40:41;;;;;;;11.50;8.50;;;;;;;16.20;100.00;97287.75;110109;1246;69177;-65
2023/07/04 03:43:11;;;;;;;10.80;8.50;;;;;;;16.19;100.00;97292.92;110108;1246;70182;-65
2023/07/04 03:45:44;;;;;;;12.50;9.00;;;;;;;16.21;100.00;97292.08;110289;1241;58885;-64
2023/07/04 03:48:14;;;;;;;12.00;9.70;;;;;;;16.23;100.00;97296.45;110183;1246;58985;-66
2023/07/04 03:50:46;;;;;;;11.30;9.30;;;;;;;16.28;100.00;97296.98;110037;1243;70625;-65
2023/07/04 03:53:17;;;;;;;11.50;9.20;;;;;;;16.34;100.00;97300.62;110038;1248;68289;-66
2023/07/04 03:55:49;;;;;;;;;;;;;;;16.41;100.00;97299.56;110105;1245;69265;-66
2023/07/04 03:58:19;;;;;;;12.10;9.20;;;;;;;16.49;100.00;97297.60;110228;1242;58875;-64
2023/07/04 04:00:50;;;;;;;11.70;10.00;;;;;;;16.58;100.00;97301.92;110234;1242;58889;-65
2023/07/04 04:03:21;;;;;;;11.90;10.20;;;;;;;16.68;100.00;97297.12;110125;1250;69875;-65
2023/07/04 04:05:52;;;;;;;12.70;10.10;;;;;;;16.73;100.00;97302.20;110336;1245;69429;-66
2023/07/04 04:08:23;;;;;;;11.80;9.70;;;;;;;16.83;100.00;97302.73;110572;1241;69266;-65
2023/07/04 04:10:53;;;;;;;11.60;9.40;;;;;;;16.88;100.00;97302.36;110521;1242;58909;-66
2023/07/04 04:13:24;;;;;;;11.70;10.30;;;;;;;16.95;100.00;97302.68;110239;1243;58869;-66
2023/07/04 04:15:54;;;;;;;13.20;11.00;;;;;;;17.07;100.00;97301.98;110247;1242;70603;-64
2023/07/04 04:18:23;;;;;;;12.30;10.60;;;;;;;17.19;100.00;97298.63;110238;1243;69815;-64
2023/07/04 04:20:52;;;;;;;12.40;9.60;;;;;;;17.30;100.00;97299.68;110270;1242;68520;-64
2023/07/04 04:23:22;;;;;;;;;;;;;;;17.43;100.00;97301.17;110238;1242;58890;-64
2023/07/04 04:25:52;;;;;;;11.70;9.70;;;;;;;17.54;100.00;97301.99;110213;1242;58927;-65
2023/07/04 04:28:21;;;;;;;12.80;10.30;;;;;;;17.66;100.00;97303.43;110270;1241;70566;-65
2023/07/04 04:30:50;;;;;;;12.80;10.80;;;;;;;17.77;100.00;97309.27;110183;1243;68389;-64
2023/07/04 04:33:20;;;;;;;12.70;10.40;;;;;;;17.89;100.00;97304.95;110178;1246;69555;-66
2023/07/04 04:35:50;;;;;;;12.70;11.10;;;;;;;18.01;100.00;97299.29;110199;1241;58873;-65
2023/07/04 04:38:19;;;;;;;;;;;;;;;18.13;100.00;97302.70;110203;1245;58870;-64
2023/07/04 04:40:50;;;;;;;11.10;9.10;;;;;;;18.25;100.00;97304.11;110169;1242;71582;-66
2023/07/04 04:43:20;;;;;;;11.70;9.50;;;;;;;18.40;100.00;97309.45;110287;1241;68451;-65
2023/07/04 04:45:49;;;;;;;9.80;8.80;;;;;;;18.55;100.00;97309.27;110162;1242;69305;-64
2023/07/04 04:48:28;;;;;;;11.60;10.40;;;;;;;18.68;100.00;97308.20;110191;1242;58868;-66
2023/07/04 04:51:07;;;;;;;;;;;;;;;18.80;100.00;97310.63;110271;1244;58947;-64
2023/07/04 04:53:39;;;;;;;11.40;10.10;;;;;;;18.91;100.00;97310.52;110268;1240;68773;-63
2023/07/04 04:56:09;;;;;;;11.00;9.90;;;;;;;18.93;100.00;97313.58;110227;1247;69845;-64
2023/07/04 04:58:45;;;;;;;12.10;10.90;;;;;;;18.97;100.00;97317.81;110172;1245;69062;-64
2023/07/04 05:01:17;;;;;;;10.70;9.40;;;;;;;19.08;100.00;97316.41;110244;1245;59262;-65
2023/07/04 05:03:51;;;;;;;10.10;8.90;;;;;;;19.22;100.00;97315.73;110287;1244;58860;-64
2023/07/04 05:06:23;;;;;;;9.60;8.60;;;;;;;19.42;100.00;97323.25;110174;1242;70732;-65
2023/07/04 05:08:53;;;;;;;10.90;9.40;;;;;;;19.65;100.00;97328.16;110289;1241;69305;-65
2023/07/04 05:11:24;;;;;;;12.60;10.50;;;;;;;19.84;100.00;97327.14;110155;1245;69225;-65
2023/07/04 05:13:53;;;;;;;9.60;8.50;;;;;;;20.16;100.00;97326.89;110221;1242;58928;-65
2023/07/04 05:16:23;;;;;;;9.50;8.10;;;;;;;20.59;100.00;97326.19;110240;1242;58875;-65
2023/07/04 05:18:53;;;;;;;9.70;8.20;;;;;;;21.16;100.00;97328.27;110331;1241;70011;-64
2023/07/04 05:21:24;;;;;;;8.30;7.40;;;;;;;21.75;100.00;97330.98;110331;1242;69709;-65
2023/07/04 05:23:54;;;;;;;8.20;7.30;;;;;;;22.13;98.10;97328.00;110301;1242;69275;-65
2023/07/04 05:26:25;;;;;;;9.10;7.60;;;;;;;22.61;96.25;97331.54;110211;1241;58924;-65
2023/07/04 05:28:58;;;;;;;7.30;6.60;;;;;;;22.96;93.33;97328.65;110227;1244;58868;-66
2023/07/04 05:31:30;;;;;;;8.70;6.90;;;;;;;23.15;92.05;97329.69;110226;1243;69660;-65
2023/07/04 05:33:59;;;;;;;7.80;7.00;;;;;;;23.32;92.84;97326.95;110207;1242;69840;-65
2023/07/04 05:36:32;;;;;;;8.20;7.40;;;;;;;23.27;88.04;97323.92;110238;1242;69269;-64
2023/07/04 05:39:06;;;;;;;8.40;6.90;;;;;;;23.18;87.74;97321.98;110247;1243;58934;-66
2023/07/04 05:41:38;;;;;;;8.40;7.10;;;;;;;23.12;88.67;97324.91;110198;1242;58857;-64
2023/07/04 05:44:09;;;;;;;8.30;6.60;;;;;;;23.17;91.35;97326.19;110241;1242;71170;-64
2023/07/04 05:46:38;;;;;;;8.40;7.50;;;;;;;23.11;87.80;97325.42;110291;1241;69693;-64
2023/07/04 05:49:07;;;;;;;9.70;7.90;;;;;;;22.87;89.81;97326.57;110235;1242;68724;-63
2023/07/04 05:51:37;;;;;;;;;;;;;;;22.70;91.52;97330.58;110184;1243;59211;-64
2023/07/04 05:54:06;;;;;;;8.70;7.00;;;;;;;22.63;91.37;97331.45;110210;1242;58843;-63
2023/07/04 05:56:35;;;;;;;;;;;;;;;22.59;91.23;97334.15;110208;1242;71093;-64
2023/07/04 05:59:04;;;;;;;8.50;7.30;;;;;;;22.65;91.81;97336.10;110336;1242;69088;-64
2023/07/04 06:01:45;;;;;;;8.70;7.10;;;;;;;22.69;91.62;97336.76;110165;1245;68544;-64
2023/07/04 06:04:14;;;;;;;7.30;6.40;;;;;;;22.63;90.76;97339.44;110182;1242;58960;-64
2023/07/04 06:06:54;;;;;;;9.20;7.80;;;;;;;22.70;91.32;97341.96;110254;1244;58889;-64
2023/07/04 06:09:23;;;;;;;9.20;7.20;;;;;;;22.70;90.71;97346.11;110220;1244;70994;-65
2023/07/04 06:11:53;;;;;;;7.50;6.70;;;;;;;22.73;89.89;97344.87;110158;1241;68428;-65
2023/07/04 06:14:24;;;;;;;6.40;5.70;;;;;;;22.93;90.70;97344.38;110142;1243;69282;-64
2023/07/04 06:16:57;;;;;;;8.00;6.90;;;;;;;23.08;89.50;97340.44;110196;1242;58918;-64
2023/07/04 06:19:27;;;;;;;7.50;6.00;;;;;;;23.16;89.01;97343.94;110245;1247;58929;-66
2023/07/04 06:21:57;;;;;;;8.50;6.70;;;;;;;23.36;87.39;97343.52;110226;1243;71162;-65
2023/07/04 06:24:27;;;;;;;7.60;6.80;;;;;;;23.57;85.96;97345.33;110341;1241;68687;-64
2023/07/04 06:26:55;;;;;;;7.50;6.80;;;;;;;23.84;84.32;97346.81;110266;1243;69293;-65
2023/07/04 06:29:25;;;;;;;;;;;;;;;24.09;82.20;97345.59;110261;1245;58924;-66
2023/07/04 06:31:54;;;;;;;;;;;;;;;24.33;80.75;97337.67;110234;1242;58895;-66
2023/07/04 06:34:24;;;;;;;8.10;6.00;;;;;;;24.89;84.36;97333.48;110134;1241;70581;-65
2023/07/04 06:36:53;;;;;;;6.60;5.90;;;;;;;25.40;79.59;97336.27;110158;1243;69818;-65
2023/07/04 06:39:22;;;;;;;7.30;6.10;;;;;;;25.88;78.80;97338.34;110219;1241;69754;-67
2023/07/04 06:41:51;;;;;;;;;;;;;;;26.37;74.93;97335.42;110238;1242;58887;-67
2023/07/04 06:44:20;;;;;;;7.50;6.50;;;;;;;26.77;72.39;97329.36;110165;1243;58931;-65
2023/07/04 06:46:49;;;;;;;6.20;5.50;;;;;;;26.99;69.23;97327.19;110283;1243;71400;-66
2023/07/04 06:49:18;;;;;;;6.10;5.50;;;;;;;27.12;68.53;97322.48;110267;1242;68637;-66
2023/07/04 06:51:47;;;;;;;;;;;;;;;27.43;65.80;97324.83;110224;1241;69321;-66
2023/07/04 06:54:16;;;;;;;8.60;6.20;;;;;;;27.62;65.66;97327.82;110218;1244;58927;-65
2023/07/04 06:56:46;;;;;;;7.10;6.00;;;;;;;27.90;64.05;97324.55;110215;1242;58972;-65
2023/07/04 06:59:15;;;;;;;7.80;6.10;;;;;;;28.23;64.01;97328.80;110315;1242;70533;-66
2023/07/04 07:01:44;;;;;;;6.90;5.30;;;;;;;28.61;65.03;97327.20;110215;1242;69743;-66
2023/07/04 07:04:16;;;;;;;6.00;5.10;;;;;;;28.82;61.58;97326.98;110217;1242;69830;-66
2023/07/04 07:06:45;;;;;;;5.50;4.90;;;;;;;29.04;62.53;97328.03;110222;1241;58930;-66
2023/07/04 07:09:14;;;;;;;6.40;5.80;;;;;;;29.27;59.70;97326.17;110215;1242;58940;-65
2023/07/04 07:11:43;;;;;;;;;;;;;;;28.88;58.64;97333.73;110339;1241;69467;-66
2023/07/04 07:14:12;;;;;;;6.20;5.60;;;;;;;28.45;58.55;97334.92;110220;1241;69270;-66
2023/07/04 07:16:41;;;;;;;5.80;4.80;;;;;;;28.66;58.83;97331.05;110174;1245;69658;-66
2023/07/04 07:19:11;;;;;;;5.70;4.80;;;;;;;29.15;58.57;97331.90;110190;1244;58978;-65
2023/07/04 07:21:43;;;;;;;5.10;4.50;;;;;;;29.71;57.79;97333.13;110162;1242;58954;-67
2023/07/04 07:24:12;;;;;;;6.00;5.50;;;;;;;30.00;56.43;97331.51;110195;1241;70594;-66
2023/07/04 07:26:43;;;;;;;5.90;4.80;;;;;;;30.10;56.20;97328.33;110269;1240;69214;-66
2023/07/04 07:29:12;;;;;;;5.50;5.00;;;;;;;29.99;55.65;97327.77;110238;1241;69874;-66
2023/07/04 07:31:41;;;;;;;6.80;6.00;;;;;;;29.83;55.46;97322.23;110239;1242;58896;-66
2023/07/04 07:34:10;;;;;;;5.10;4.60;;;;;;;29.61;55.85;97323.19;110175;1244;59263;-67
2023/07/04 07:36:42;;;;;;;6.00;5.00;;;;;;;29.27;56.25;97326.80;110215;1241;70956;-67
2023/07/04 07:39:15;;;;;;;6.00;4.80;;;;;;;29.36;56.57;97331.05;110192;1240;69865;-66
2023/07/04 07:41:47;;;;;;;6.20;4.90;;;;;;;29.65;56.29;97333.36;110225;1242;69598;-65
2023/07/04 07:44:17;;;;;;;5.30;4.80;;;;;;;30.28;55.39;97329.77;110202;1242;59014;-65
2023/07/04 07:46:46;;;;;;;5.10;4.40;;;;;;;30.65;53.14;97330.56;110144;1245;58848;-66
2023/07/04 07:49:16;;;;;;;5.90;5.10;;;;;;;30.87;51.86;97321.69;110219;1241;71071;-66
2023/07/04 07:51:45;;;;;;;5.10;4.60;;;;;;;30.85;51.44;97327.23;110323;1240;68407;-66
2023/07/04 07:54:14;;;;;;;9.10;7.50;;;;;;;31.14;51.34;97328.09;110279;1242;69256;-66
2023/07/04 07:56:45;;;;;;;6.60;5.70;;;;;;;31.04;49.14;97322.83;110251;1241;58880;-66
2023/07/04 07:59:14;;;;;;;8.50;5.60;;;;;;;30.84;48.87;97324.65;110226;1243;58881;-66
2023/07/04 08:01:43;;;;;;;5.60;5.10;;;;;;;30.46;49.44;97324.02;110236;1244;71012;-68
2023/07/04 08:04:13;;;;;;;5.20;4.60;;;;;;;30.63;49.70;97323.61;110251;1242;70085;-67
2023/07/04 08:06:45;;;;;;;5.80;4.90;;;;;;;30.82;50.55;97318.36;110178;1242;69672;-67
2023/07/04 08:09:17;;;;;;;4.50;4.10;;;;;;;31.22;48.76;97316.77;110265;1242;59734;-67
2023/07/04 08:11:48;;;;;;;5.00;4.20;;;;;;;31.56;47.03;97314.29;110223;1242;59788;-67
2023/07/04 08:14:20;;;;;;;4.40;3.70;;;;;;;31.95;45.84;97312.75;110239;1240;70641;-67
2023/07/04 08:16:54;;;;;;;5.30;4.30;;;;;;;32.05;45.26;97311.63;110241;1242;69270;-67
2023/07/04 08:19:24;;;;;;;4.50;3.90;;;;;;;32.15;44.00;97311.33;110241;1246;68899;-68
2023/07/04 08:21:54;;;;;;;4.70;4.20;;;;;;;32.47;44.33;97312.80;110312;1242;59700;-66
2023/07/04 08:24:23;;;;;;;4.40;4.00;;;;;;;32.59;42.70;97308.97;110192;1241;59678;-66
2023/07/04 08:26:55;;;;;;;4.30;3.90;;;;;;;32.56;42.85;97312.68;110160;1243;72284;-67
2023/07/04 08:29:25;;;;;;;4.90;4.30;;;;;;;32.72;43.50;97309.98;110148;1243;69837;-68
2023/07/04 08:31:54;;;;;;;5.10;4.50;;;;;;;32.97;43.78;97310.02;110169;1245;69877;-68
2023/07/04 08:34:23;;;;;;;5.00;3.40;;;;;;;33.09;41.72;97308.38;110170;1245;59782;-67
2023/07/04 08:36:52;;;;;;;3.90;3.50;;;;;;;33.25;43.43;97306.45;110200;1244;59656;-67
2023/07/04 08:39:23;;;;;;;4.30;3.80;;;;;;;33.21;42.75;97307.25;110179;1241;71801;-67
2023/07/04 08:42:03;;;;;;;4.90;3.60;;;;;;;32.79;39.96;97307.33;110189;1244;68310;-66
2023/07/04 08:44:44;;;;;;;4.30;3.50;;;;;;;32.89;40.13;97307.46;110146;1242;69832;-66
2023/07/04 08:47:17;;;;;;;5.40;4.30;;;;;;;32.48;39.73;97303.66;110111;1244;59756;-66
2023/07/04 08:49:54;;;;;;;4.50;4.10;;;;;;;32.52;40.08;97305.07;110141;1244;59702;-66
2023/07/04 08:52:36;;;;;;;4.20;3.80;;;;;;;32.75;39.78;97303.14;110125;1244;71551;-67
2023/07/04 08:55:11;;;;;;;4.10;3.80;;;;;;;32.62;40.06;97300.02;110164;1241;69258;-67
2023/07/04 08:57:48;;;;;;;3.90;3.30;;;;;;;32.85;40.29;97299.50;110219;1241;69875;-66
2023/07/04 09:00:35;;;;;;;4.10;3.60;;;;;;;32.57;38.60;97298.02;110247;1249;59734;-67
2023/07/04 09:03:10;;;;;;;3.70;3.10;;;;;;;33.02;37.68;97294.19;110147;1243;59711;-68
2023/07/04 09:05:49;;;;;;;5.10;3.80;;;;;;;32.50;37.71;97295.45;110147;1244;71482;-67
2023/07/04 09:08:38;;;;;;;4.40;3.80;;;;;;;32.61;38.59;97293.20;110159;1244;68503;-67
2023/07/04 09:11:11;;;;;;;3.10;2.80;;;;;;;33.36;37.15;97288.55;110143;1242;69908;-67
2023/07/04 09:13:46;;;;;;;3.50;3.20;;;;;;;33.69;36.52;97291.99;110161;1244;59728;-68
2023/07/04 09:16:24;;;;;;;3.60;3.20;;;;;;;33.89;34.83;97291.34;110125;1241;59741;-67
2023/07/04 09:19:07;;;;;;;5.30;3.70;;;;;;;34.07;32.87;97291.91;110115;1243;71994;-68
2023/07/04 09:21:36;;;;;;;3.00;2.70;;;;;;;34.17;32.95;97288.44;109885;1241;69863;-67
2023/07/04 09:24:06;;;;;;;3.60;3.10;;;;;;;34.07;32.77;97282.41;110182;1245;69871;-68
2023/07/04 09:26:47;;;;;;;3.40;3.10;;;;;;;33.88;33.55;97287.05;110082;1241;59756;-67
2023/07/04 09:29:22;;;;;;;4.10;3.50;;;;;;;34.12;34.43;97285.98;110156;1244;59680;-67
2023/07/04 09:32:00;;;;;;;3.30;3.00;;;;;;;34.37;34.58;97287.25;110172;1241;71793;-64
2023/07/04 09:34:36;;;;;;;4.50;3.10;;;;;;;34.49;34.80;97286.05;110193;1245;69825;-68
2023/07/04 09:37:17;;;;;;;4.20;3.80;;;;;;;34.55;33.69;97285.09;110155;1243;69874;-68
2023/07/04 09:39:50;;;;;;;5.90;3.70;;;;;;;34.24;34.91;97286.51;110132;1243;59682;-68
2023/07/04 09:42:43;;;;;;;4.20;3.80;;;;;;;34.60;34.56;97287.44;110096;1244;59638;-69
2023/07/04 09:45:23;;;;;;;3.90;3.50;;;;;;;34.67;33.66;97285.34;110157;1241;71819;-67
2023/07/04 09:47:52;;;;;;;5.20;3.20;;;;;;;34.32;32.28;97283.34;110136;1243;68597;-67
2023/07/04 09:50:21;;;;;;;3.50;3.20;;;;;;;34.33;32.11;97284.48;110175;1241;69274;-68
2023/07/04 09:53:03;;;;;;;4.30;3.50;;;;;;;34.23;32.91;97279.56;110151;1241;59683;-66
2023/07/04 09:55:32;;;;;;;3.70;3.40;;;;;;;34.16;33.29;97273.90;110135;1245;60323;-66
2023/07/04 09:58:23;;;;;;;3.60;2.90;;;;;;;34.04;33.77;97273.49;110174;1241;72440;-67
2023/07/04 10:01:27;;;;;;;3.60;3.30;;;;;;;34.14;34.02;97273.78;110169;1241;69822;-68
2023/07/04 10:04:08;;;;;;;3.50;3.00;;;;;;;34.96;33.14;97263.61;109449;1251;70050;-69
2023/07/04 10:06:38;;;;;;;3.50;3.20;;;;;;;34.94;33.52;97260.28;110113;1243;60217;-68
2023/07/04 10:09:19;;;;;;;3.20;2.90;;;;;;;35.15;32.84;97260.07;110240;1242;59740;-69
2023/07/04 10:11:51;;;;;;;3.90;3.50;;;;;;;35.35;32.76;97258.19;110183;1241;71367;-67
2023/07/04 10:14:33;;;;;;;3.50;3.00;;;;;;;35.28;32.60;97256.75;110141;1241;69307;-69
2023/07/04 10:17:15;;;;;;;4.80;3.70;;;;;;;35.07;33.84;97257.63;110170;1241;69289;-68
2023/07/04 10:19:48;;;;;;;4.10;3.60;;;;;;;34.25;33.49;97256.21;110184;1241;59733;-67
2023/07/04 10:22:32;;;;;;;3.70;3.20;;;;;;;33.55;33.70;97252.61;110222;1241;59736;-67
2023/07/04 10:25:02;;;;;;;4.10;3.20;;;;;;;33.65;33.59;97249.52;110216;1244;71794;-67
2023/07/04 10:27:34;;;;;;;3.60;2.90;;;;;;;33.62;34.48;97248.35;110166;1241;69325;-68
2023/07/04 10:30:08;;;;;;;4.20;3.50;;;;;;;33.59;33.70;97246.10;110172;1244;69861;-67
2023/07/04 10:32:48;;;;;;;4.10;3.70;;;;;;;33.14;34.17;97239.91;110189;1241;59704;-68
2023/07/04 10:35:26;;;;;;;3.90;3.40;;;;;;;33.19;35.20;97240.55;110160;1241;59718;-67
2023/07/04 10:37:59;;;;;;;;;;;;;;;33.56;35.06;97238.85;110204;1242;71970;-67
2023/07/04 10:40:28;;;;;;;4.10;3.70;;;;;;;33.58;34.33;97230.84;110174;1244;69257;-68
2023/07/04 10:43:03;;;;;;;4.00;3.60;;;;;;;33.58;34.35;97231.76;110246;1244;69852;-69
2023/07/04 10:45:35;;;;;;;4.50;3.00;;;;;;;33.45;34.35;97232.13;110185;1243;59688;-70
2023/07/04 10:48:17;;;;;;;3.70;3.10;;;;;;;33.55;35.64;97229.69;110225;1243;59751;-68
2023/07/04 10:51:02;;;;;;;4.90;3.70;;;;;;;33.80;34.32;97227.15;110208;1241;71429;-69
2023/07/04 10:53:32;;;;;;;4.90;3.70;;;;;;;33.76;34.22;97224.86;110167;1245;69822;-69
2023/07/04 10:56:14;;;;;;;3.80;3.30;;;;;;;33.61;35.18;97224.36;110170;1241;69743;-69
2023/07/04 10:58:47;;;;;;;4.60;3.50;;;;;;;33.55;35.28;97222.48;110184;1242;59711;-68
2023/07/04 11:01:39;;;;;;;3.90;3.40;;;;;;;33.76;33.84;97219.81;110191;1244;59755;-68
2023/07/04 11:04:25;;;;;;;4.30;3.60;;;;;;;33.59;34.09;97217.58;110220;1244;71805;-68
2023/07/04 11:07:06;;;;;;;4.10;3.70;;;;;;;33.65;34.65;97220.90;110154;1243;69800;-69
2023/07/04 11:09:40;;;;;;;3.90;3.40;;;;;;;33.82;33.69;97221.67;110148;1245;69846;-68
2023/07/04 11:12:16;;;;;;;4.30;3.90;;;;;;;33.79;33.00;97213.80;110204;1243;59697;-66
2023/07/04 11:14:47;;;;;;;3.30;3.00;;;;;;;33.39;34.03;97208.88;110253;1244;59750;-66
2023/07/04 11:17:21;;;;;;;5.30;3.40;;;;;;;33.15;33.66;97205.92;110209;1243;71478;-67
2023/07/04 11:20:10;;;;;;;4.30;3.60;;;;;;;33.20;33.77;97202.27;110258;1245;69301;-67
2023/07/04 11:22:54;;;;;;;4.50;3.20;;;;;;;33.32;34.06;97200.23;110214;1241;69121;-67
2023/07/04 11:25:40;;;;;;;3.70;3.30;;;;;;;33.58;34.04;97199.10;110181;1243;59684;-68
2023/07/04 11:28:36;;;;;;;3.80;3.40;;;;;;;33.81;34.08;97196.35;110178;1247;60124;-67
2023/07/04 11:31:24;;;;;;;5.00;3.90;;;;;;;33.80;34.50;97194.56;110158;1241;71739;-67
2023/07/04 11:33:54;;;;;;;3.90;3.50;;;;;;;33.68;34.31;97192.14;110186;1244;69822;-67
2023/07/04 11:36:29;;;;;;;4.50;4.00;;;;;;;33.37;35.41;97190.08;110131;1243;69909;-67
2023/07/04 11:39:03;;;;;;;3.70;3.30;;;;;;;32.94;35.47;97179.42;110203;1243;59846;-67
2023/07/04 11:41:40;;;;;;;6.00;4.00;;;;;;;32.50;36.22;97177.88;110204;1241;59738;-66
2023/07/04 11:44:31;;;;;;;4.20;3.80;;;;;;;32.94;36.23;97181.09;109857;1241;71392;-68
2023/07/04 11:47:02;;;;;;;3.90;3.10;;;;;;;33.02;34.57;97175.21;110180;1241;68650;-66
2023/07/04 11:49:34;;;;;;;5.40;4.10;;;;;;;33.46;36.14;97175.86;110144;1245;70163;-67